Latest Weather Observations for Camooweal

IDQ60801

Issued at 6:02 pm EST Saturday 16 October 2021 (issued every 10 minutes, with the page automatically refreshed every 10 minutes)

About weather observations | Map of weather stations | Latest weather observations for QLD | Other Formats
Station Details ID: 037010 Name: CAMOOWEAL TOWNSHIP Lat: -19.92 Lon: 138.12 Height: 231.2 m
Data from the previous 72 hours. | See also: Recent months at Camooweal
Date/Time
EST
Temp
°C
App
Temp
°C
Dew
Point
°C
Rel
Hum
%
Delta-T
°C
Wind Press
QNH
hPa
Press
MSL
hPa
Rain since
9am
mm
Dir  Spd
km/h
Gust
km/h
Spd
kts
Gust
kts
16/06:00pm 32.8 27.9 -0.3 12 16.2 SSW 15 22 8 12 1010.4 1009.0 0.0
16/05:30pm 33.3 28.1 0.1 12 16.4 S 17 22 9 12 1010.2 1008.8 0.0
16/05:00pm 33.7 29.3 0.4 12 16.6 S 13 22 7 12 1010.1 1008.7 0.0
16/04:30pm 33.6 30.1 1.4 13 16.3 SSW 9 19 5 10 1010.2 1008.8 0.0
16/04:00pm 34.2 29.7 1.9 13 16.6 S 15 22 8 12 1010.3 1008.9 0.0
16/03:30pm 34.1 29.4 0.7 12 16.8 S 15 26 8 14 1010.5 1009.1 0.0
16/03:00pm 33.7 29.3 0.4 12 16.6 S 13 22 7 12 1011.0 1009.5 0.0
16/02:30pm 33.6 30.0 0.3 12 16.5 SSW 9 20 5 11 1011.4 1009.9 0.0
16/02:00pm 33.3 28.9 0.1 12 16.4 SSE 13 20 7 11 1011.9 1010.4 0.0
16/01:30pm 33.2 28.4 0.0 12 16.4 S 15 22 8 12 1012.5 1011.1 0.0
16/01:00pm 32.8 27.7 0.8 13 16.0 S 17 28 9 15 1013.3 1011.9 0.0
16/12:30pm 31.8 27.0 0.0 13 15.5 SSE 15 26 8 14 1013.9 1012.5 0.0
16/12:00pm 31.7 26.3 1.0 14 15.2 SE 19 32 10 17 1014.2 1012.8 0.0
16/11:30am 30.7 24.9 0.2 14 14.8 SSE 20 28 11 15 1014.8 1013.4 0.0
16/11:00am 29.8 24.1 -0.5 14 14.5 SSE 19 28 10 15 1015.4 1013.9 0.0
16/10:30am 28.5 22.6 -0.6 15 13.8 SE 20 30 11 16 1015.7 1014.2 0.0
16/10:00am 28.0 22.3 0.7 17 13.1 SE 20 33 11 18 1016.1 1014.7 0.0
16/09:30am 26.6 20.5 0.4 18 12.4 SE 22 30 12 16 1016.1 1014.7 0.0
16/09:00am 25.1 19.0 0.6 20 11.5 SE 22 32 12 17 1016.1 1014.7 0.0
16/08:30am 24.2 17.8 1.2 22 10.9 SE 24 33 13 18 1015.9 1014.4 0.0
16/08:00am 22.6 15.1 1.0 24 10.0 SE 30 37 16 20 1015.3 1013.8 0.0
16/07:30am 21.5 15.4 0.7 25 9.5 SE 22 32 12 17 1015.0 1013.6 0.0
16/07:00am 20.3 15.2 0.7 27 8.9 SE 17 26 9 14 1014.7 1013.3 0.0
16/06:30am 19.7 14.6 0.7 28 8.6 SSE 17 24 9 13 1014.2 1012.8 0.0
16/06:00am 19.6 14.5 0.6 28 8.6 SSE 17 24 9 13 1013.7 1012.3 0.0
16/05:30am 20.0 14.9 0.5 27 8.8 SSE 17 20 9 11 1013.8 1012.4 0.0
16/05:00am 20.1 14.5 0.0 26 9.0 S 19 28 10 15 1013.4 1012.0 0.0
16/04:30am 20.8 14.7 0.1 25 9.3 WSW 22 32 12 17 1013.2 1011.8 0.0
16/04:00am 19.7 15.3 0.2 27 8.7 SSE 13 17 7 9 1013.1 1011.7 0.0
16/03:30am 20.0 15.2 0.5 27 8.8 SSE 15 20 8 11 1013.4 1012.0 0.0
16/03:00am 20.5 15.3 0.4 26 9.1 SSE 17 20 9 11 1013.5 1012.1 0.0
16/02:30am 20.8 16.1 0.6 26 9.2 SSE 15 20 8 11 1013.7 1012.3 0.0
16/02:00am 21.0 16.2 0.2 25 9.4 S 15 19 8 10 1013.7 1012.3 0.0
16/01:30am 21.6 16.8 0.2 24 9.7 SSE 15 22 8 12 1013.8 1012.4 0.0
16/01:00am 22.0 16.4 -0.1 23 10.0 SSE 19 24 10 13 1013.9 1012.5 0.0
16/12:30am 22.3 16.7 0.2 23 10.1 S 19 26 10 14 1013.9 1012.5 0.0
16/12:00am 22.9 17.7 0.1 22 10.5 S 17 22 9 12 1014.0 1012.6 0.0
 
Date/Time
EST
Temp
°C
App
Temp
°C
Dew
Point
°C
Rel
Hum
%
Delta-T
°C
Wind Press
QNH
hPa
Press
MSL
hPa
Rain since
9am
mm
Dir  Spd
km/h
Gust
km/h
Spd
kts
Gust
kts
15/11:30pm 23.4 18.2 -0.1 21 10.8 SSE 17 20 9 11 1014.2 1012.8 0.0
15/11:00pm 24.1 18.9 -0.2 20 11.2 SSE 17 22 9 12 1013.9 1012.5 0.0
15/10:30pm 24.9 19.5 -1.0 18 11.8 SSE 17 22 9 12 1013.7 1012.3 0.0
15/10:00pm 25.8 19.5 -1.1 17 12.3 S 22 28 12 15 1013.4 1012.0 0.0
15/09:30pm 26.1 20.2 -0.8 17 12.4 S 20 26 11 14 1013.2 1011.8 0.0
15/09:00pm 26.4 20.4 -1.4 16 12.7 S 20 26 11 14 1012.8 1011.4 0.0
15/08:30pm 27.0 21.7 -0.9 16 13.0 S 17 22 9 12 1012.6 1011.2 0.0
15/08:00pm 27.3 22.9 0.1 17 12.9 SSW 13 17 7 9 1012.1 1010.6 0.0
15/07:30pm 28.1 23.6 -0.1 16 13.4 SSW 13 17 7 9 1011.7 1010.2 0.0
15/07:00pm 29.5 24.6 -0.8 14 14.4 SW 15 20 8 11 1011.4 1009.9 0.0
15/06:30pm 30.8 25.1 -0.8 13 15.1 S 19 24 10 13 1011.0 1009.5 0.0
15/06:00pm 31.9 26.7 0.1 13 15.6 SSE 17 22 9 12 1010.5 1009.1 0.0
15/05:30pm 32.3 26.6 0.4 13 15.7 SSE 20 30 11 16 1010.4 1009.0 0.0
15/05:00pm 32.8 27.7 0.8 13 16.0 SSE 17 26 9 14 1010.4 1009.0 0.0
15/04:30pm 32.7 27.6 0.7 13 15.9 SSE 17 22 9 12 1010.5 1009.1 0.0
15/04:00pm 33.2 27.8 1.1 13 16.1 SSE 19 32 10 17 1010.8 1009.3 0.0
15/03:30pm 32.4 27.9 -0.6 12 16.0 SE 13 28 7 15 1011.1 1009.6 0.0
15/03:00pm 32.2 26.5 -0.8 12 16.0 SSE 19 33 10 18 1011.2 1009.7 0.0
15/02:30pm 32.2 25.9 -0.8 12 16.0 SSE 22 35 12 19 1011.7 1010.2 0.0
15/02:00pm 31.6 25.6 -1.2 12 15.7 SSE 20 32 11 17 1012.1 1010.6 0.0
15/01:30pm 32.1 26.0 0.2 13 15.7 SSE 22 39 12 21 1012.6 1011.2 0.0
15/01:00pm 31.2 24.8 -1.5 12 15.5 SSE 22 30 12 16 1013.2 1011.8 0.0
15/12:30pm 30.4 24.1 -1.1 13 15.0 SSE 22 33 12 18 1013.8 1012.4 0.0
15/12:00pm 30.2 23.5 -1.2 13 14.9 S 24 33 13 18 1014.3 1012.9 0.0
15/11:30am 29.3 23.0 -0.9 14 14.3 SSE 22 32 12 17 1014.6 1013.2 0.0
15/11:00am 29.5 22.8 -0.8 14 14.4 SSE 24 35 13 19 1014.8 1013.4 0.0
15/10:30am 28.0 21.4 -0.1 16 13.3 SSE 24 33 13 18 1015.2 1013.7 0.0
15/10:00am 27.5 20.1 -0.5 16 13.1 SSE 28 39 15 21 1015.2 1013.7 0.0
15/09:30am 27.0 19.7 -0.1 17 12.8 SSE 28 37 15 20 1015.0 1013.6 0.0
15/09:00am 26.1 18.9 0.7 19 12.1 SSE 28 37 15 20 1014.7 1013.3 0.0
15/08:30am 24.7 17.5 0.9 21 11.2 SSE 28 37 15 20 1014.6 1013.2 0.0
15/08:00am 23.4 16.6 1.1 23 10.5 SSE 26 35 14 19 1014.2 1012.8 0.0
15/07:30am 22.9 18.0 1.9 25 10.0 SSE 17 24 9 13 1013.9 1012.5 0.0
15/07:00am 22.0 17.4 1.6 26 9.6 SSE 15 20 8 11 1013.5 1012.1 0.0
15/06:30am 21.4 16.5 1.7 27 9.2 SSE 17 22 9 12 1013.2 1011.8 0.0
15/06:00am 21.7 16.7 1.4 26 9.5 S 17 22 9 12 1012.8 1011.4 0.0
15/05:30am 22.1 17.1 1.2 25 9.7 SSE 17 22 9 12 1012.4 1011.0 0.0
15/05:00am 22.6 17.2 1.0 24 10.1 SSE 19 26 10 14 1012.1 1010.6 0.0
15/04:30am 23.0 17.5 0.8 23 10.3 SSE 19 26 10 14 1011.8 1010.3 0.0
15/04:00am 23.5 17.8 0.6 22 10.7 S 20 26 11 14 1011.8 1010.3 0.0
15/03:30am 23.8 18.1 0.8 22 10.8 SSE 20 26 11 14 1011.6 1010.1 0.0
15/03:00am 24.0 18.5 1.6 23 10.7 SSE 20 28 11 15 1011.7 1010.2 0.0
15/02:30am 24.5 19.1 1.4 22 11.0 S 19 28 10 15 1011.7 1010.2 0.0
15/02:00am 24.9 19.5 2.4 23 10.9 SSE 20 30 11 16 1011.5 1010.0 0.0
15/01:30am 24.6 20.0 3.8 26 10.4 SSE 17 22 9 12 1011.4 1009.9 0.0
15/01:00am 25.4 20.9 4.0 25 10.8 SE 17 22 9 12 1011.5 1010.0 0.0
15/12:30am 25.8 20.9 4.3 25 10.9 SSE 19 26 10 14 1011.2 1009.7 0.0
15/12:00am 26.3 21.2 4.1 24 11.2 SSE 20 26 11 14 1011.4 1009.9 0.0
 
Date/Time
EST
Temp
°C
App
Temp
°C
Dew
Point
°C
Rel
Hum
%
Delta-T
°C
Wind Press
QNH
hPa
Press
MSL
hPa
Rain since
9am
mm
Dir  Spd
km/h
Gust
km/h
Spd
kts
Gust
kts
14/11:30pm 26.3 21.8 4.1 24 11.2 SSE 17 22 9 12 1011.7 1010.2 0.0
14/11:00pm 26.6 22.0 3.8 23 11.5 SSE 17 22 9 12 1011.7 1010.2 0.0
14/10:30pm 27.6 22.5 4.0 22 12.0 SSE 20 26 11 14 1011.4 1009.9 0.0
14/10:00pm 28.0 23.1 5.0 23 12.0 SSE 20 28 11 15 1011.1 1009.6 0.0
14/09:30pm 28.6 23.4 5.5 23 12.1 S 22 30 12 16 1010.8 1009.3 0.0
14/09:00pm 29.2 24.5 6.0 23 12.4 S 20 30 11 16 1010.1 1008.7 0.0
14/08:30pm 29.6 24.8 5.6 22 12.7 S 20 28 11 15 1009.6 1008.2 0.0
14/08:00pm 30.5 25.7 5.7 21 13.3 S 20 28 11 15 1009.1 1007.7 0.0
14/07:30pm 31.3 26.7 6.4 21 13.5 S 20 26 11 14 1008.6 1007.2 0.0
14/07:00pm 32.5 27.9 6.7 20 14.2 S 20 30 11 16 1008.0 1006.5 0.0
14/06:30pm 33.8 28.9 8.4 21 14.4 SSW 24 30 13 16 1007.4 1005.9 0.0
14/06:00pm 35.0 32.6 11.4 24 14.1 SSW 15 24 8 13 1007.1 1005.6 0.0
14/05:30pm 35.5 34.6 12.5 25 14.0 W 9 17 5 9 1006.8 1005.3 0.0
14/05:00pm 35.8 34.0 13.3 26 13.9 SSW 15 20 8 11 1006.8 1005.3 0.0
14/04:30pm 35.2 34.2 13.4 27 13.4 SSW 11 17 6 9 1006.8 1005.3 0.0
14/04:00pm 36.2 33.7 13.6 25 14.0 SSW 19 28 10 15 1006.8 1005.3 0.0
14/03:30pm 35.5 35.1 14.2 28 13.2 S 9 19 5 10 1007.2 1005.7 0.0
14/03:00pm 35.7 35.2 14.9 29 13.1 W 11 22 6 12 1007.5 1006.0 0.0
14/02:30pm 35.5 35.1 15.3 30 12.8 WSW 11 28 6 15 1008.0 1006.5 0.0
14/02:00pm 34.4 33.5 14.8 30 12.3 S 13 20 7 11 1008.5 1007.1 0.0
14/01:30pm 34.1 33.7 15.1 32 11.9 NW 11 20 6 11 1008.8 1007.4 0.0
14/01:00pm 33.5 34.5 16.4 36 10.9 N 6 13 3 7 1009.4 1008.0 0.0
14/12:30pm 32.5 32.8 15.9 36 10.5 ESE 9 17 5 9 1009.9 1008.5 0.0
14/12:00pm 32.5 32.7 16.8 39 10.0 SSE 11 20 6 11 1010.4 1009.0 0.0
14/11:30am 31.8 32.3 16.5 39 9.7 S 9 17 5 9 1010.9 1009.4 0.0
14/11:00am 31.1 31.8 17.0 42 9.0 ESE 9 17 5 9 1011.2 1009.7 0.0
14/10:30am 30.7 31.5 17.4 45 8.5 ESE 9 15 5 8 1011.3 1009.8 0.0
14/10:00am 29.7 30.1 17.2 47 8.0 SE 11 17 6 9 1011.4 1009.9 0.0
14/09:30am 29.4 29.7 15.9 44 8.4 ESE 9 17 5 9 1011.6 1010.1 0.0
14/09:00am 28.3 27.5 15.2 44 8.1 SE 13 19 7 10 1011.5 1010.0 0.0
14/08:30am 26.7 24.1 13.8 45 7.7 SE 20 26 11 14 1011.3 1009.8 0.0
14/08:00am 25.8 24.5 13.6 47 7.3 SE 13 19 7 10 1011.1 1009.6 0.0
14/07:30am 24.3 23.2 14.4 54 5.9 S 13 17 7 9 1010.8 1009.3 0.0
14/07:00am 22.0 22.3 15.1 65 4.1 S 7 9 4 5 1010.5 1009.1 0.0
14/06:30am 21.4 21.6 14.6 65 4.0 SSW 7 9 4 5 1010.2 1008.8 0.0
14/06:00am 21.9 21.6 14.5 63 4.4 S 9 11 5 6 1009.9 1008.5 0.0
14/05:30am 21.9 21.9 15.3 66 4.0 SSW 9 11 5 6 1009.4 1008.0 0.0
14/05:00am 22.2 22.1 16.0 68 3.8 SSW 11 13 6 7 1009.1 1007.7 0.0
14/04:30am 22.6 23.0 16.2 67 3.9 SW 9 11 5 6 1009.2 1007.8 0.0
14/04:00am 23.4 23.8 16.2 64 4.4 SW 9 13 5 7 1009.0 1007.6 0.0
14/03:30am 23.5 23.9 16.3 64 4.4 SSW 9 13 5 7 1008.8 1007.4 0.0
14/03:00am 23.7 23.8 16.5 64 4.5 S 11 13 6 7 1008.5 1007.1 0.0
14/02:30am 23.9 24.3 17.2 66 4.2 SW 11 13 6 7 1009.0 1007.6 0.0
14/02:00am 24.6 26.7 19.0 71 3.6 WSW 6 7 3 4 1009.3 1007.9 0.0
14/01:30am 24.2 26.1 20.5 80 2.4 WSW 11 13 6 7 1009.3 1007.9 0.0
14/01:00am 24.9 27.7 20.4 76 3.0 WNW 6 9 3 5 1010.0 1008.6 0.0
14/12:30am 24.9 26.0 20.4 76 3.0 NNE 15 22 8 12 1009.7 1008.3 0.0
14/12:00am 24.5 27.4 21.0 81 2.3 SW 7 15 4 8 1009.2 1007.8 0.0
 
Date/Time
EST
Temp
°C
App
Temp
°C
Dew
Point
°C
Rel
Hum
%
Delta-T
°C
Wind Press
QNH
hPa
Press
MSL
hPa
Rain since
9am
mm
Dir  Spd
km/h
Gust
km/h
Spd
kts
Gust
kts
13/11:30pm 24.8 27.0 20.3 76 3.0 ESE 9 11 5 6 1008.9 1007.5 0.0
13/11:00pm 25.2 27.3 20.2 74 3.3 ESE 9 11 5 6 1009.0 1007.6 0.0
13/10:30pm 25.1 26.7 19.9 73 3.4 ESE 11 13 6 7 1008.9 1007.5 0.0
13/10:00pm 25.6 26.4 19.9 70 3.7 ESE 15 17 8 9 1009.0 1007.6 0.0
13/09:30pm 25.5 26.1 19.4 69 4.0 ESE 15 20 8 11 1009.1 1007.7 0.0
13/09:00pm 25.5 26.5 18.7 66 4.4 ESE 11 15 6 8 1009.0 1007.6 0.0
13/08:30pm 25.6 27.1 18.8 66 4.4 SE 9 15 5 8 1008.9 1007.5 0.0
13/08:00pm 25.7 26.6 17.6 61 5.1 E 9 17 5 9 1009.1 1007.7 0.0
13/07:30pm 26.6 23.1 17.4 57 5.8 N 32 57 17 31 1008.0 1006.5 0.0
13/07:18pm 28.7 26.2 17.2 49 7.3 N 26 63 14 34 1007.6 1006.1 0.0
13/07:00pm 32.9 33.1 15.8 35 10.8 SSE 9 11 5 6 1007.2 1005.7 0.0
13/06:30pm 33.4 32.1 15.8 34 11.1 S 17 20 9 11 1007.0 1005.5 0.0

Other formats

Comma delimited format used in spreadsheet applications
http://www.bom.gov.au/fwo/IDQ60801/IDQ60801.94255.axf

JavaScript Object Notation format (JSON) in row-major order
http://www.bom.gov.au/fwo/IDQ60801/IDQ60801.94255.json

Data quality

Most of these data are generated automatically and are frequently updated. Quality checks on data are not normally performed. It is possible for incorrect values to appear. Refer to information at About Latest Weather Observations and please check the disclaimer before using these data.